sensor_id;sensor_type;location;lat;lon;timestamp;P1;durP1;ratioP1;P2;durP2;ratioP2
24223;SDS011;12359;49.716;9.212;2022-08-20T00:00:35;9.68;;;8.68;;
24223;SDS011;12359;49.716;9.212;2022-08-20T00:03:07;11.05;;;9.95;;
24223;SDS011;12359;49.716;9.212;2022-08-20T00:05:44;10.35;;;9.35;;
24223;SDS011;12359;49.716;9.212;2022-08-20T00:08:13;10.98;;;9.75;;
24223;SDS011;12359;49.716;9.212;2022-08-20T00:10:41;10.93;;;9.82;;
24223;SDS011;12359;49.716;9.212;2022-08-20T00:13:09;10.80;;;8.80;;
24223;SDS011;12359;49.716;9.212;2022-08-20T00:15:39;9.77;;;8.80;;
24223;SDS011;12359;49.716;9.212;2022-08-20T00:18:05;16.25;;;10.75;;
24223;SDS011;12359;49.716;9.212;2022-08-20T00:20:33;9.98;;;8.98;;
24223;SDS011;12359;49.716;9.212;2022-08-20T00:23:03;9.68;;;8.75;;
24223;SDS011;12359;49.716;9.212;2022-08-20T00:25:29;11.77;;;8.95;;
24223;SDS011;12359;49.716;9.212;2022-08-20T00:27:55;10.85;;;9.75;;
24223;SDS011;12359;49.716;9.212;2022-08-20T00:30:22;12.68;;;10.40;;
24223;SDS011;12359;49.716;9.212;2022-08-20T00:32:53;13.02;;;9.73;;
24223;SDS011;12359;49.716;9.212;2022-08-20T00:35:24;11.43;;;9.80;;
24223;SDS011;12359;49.716;9.212;2022-08-20T00:37:52;10.93;;;9.80;;
24223;SDS011;12359;49.716;9.212;2022-08-20T00:40:20;10.88;;;9.50;;
24223;SDS011;12359;49.716;9.212;2022-08-20T00:42:53;12.00;;;9.70;;
24223;SDS011;12359;49.716;9.212;2022-08-20T00:45:27;10.63;;;9.48;;
24223;SDS011;12359;49.716;9.212;2022-08-20T00:47:54;10.40;;;9.32;;
24223;SDS011;12359;49.716;9.212;2022-08-20T00:50:23;11.25;;;10.05;;
24223;SDS011;12359;49.716;9.212;2022-08-20T00:52:56;14.35;;;10.88;;
24223;SDS011;12359;49.716;9.212;2022-08-20T00:55:23;12.18;;;9.63;;
24223;SDS011;12359;49.716;9.212;2022-08-20T00:57:51;11.98;;;10.65;;
24223;SDS011;12359;49.716;9.212;2022-08-20T01:00:25;13.57;;;10.63;;
24223;SDS011;12359;49.716;9.212;2022-08-20T01:02:58;9.95;;;8.95;;
24223;SDS011;12359;49.716;9.212;2022-08-20T01:05:25;10.27;;;9.27;;
24223;SDS011;12359;49.716;9.212;2022-08-20T01:07:52;9.88;;;8.88;;
24223;SDS011;12359;49.716;9.212;2022-08-20T01:10:23;10.57;;;9.48;;
24223;SDS011;12359;49.716;9.212;2022-08-20T01:12:52;11.85;;;10.63;;
24223;SDS011;12359;49.716;9.212;2022-08-20T01:15:21;10.70;;;9.77;;
24223;SDS011;12359;49.716;9.212;2022-08-20T01:17:51;12.43;;;9.82;;
24223;SDS011;12359;49.716;9.212;2022-08-20T01:20:23;10.82;;;9.55;;
24223;SDS011;12359;49.716;9.212;2022-08-20T01:22:57;12.43;;;10.75;;
24223;SDS011;12359;49.716;9.212;2022-08-20T01:26:14;9.95;;;8.93;;
24223;SDS011;12359;49.716;9.212;2022-08-20T01:31:19;12.95;;;11.65;;
24223;SDS011;12359;49.716;9.212;2022-08-20T01:33:50;11.60;;;9.50;;
24223;SDS011;12359;49.716;9.212;2022-08-20T01:36:20;11.40;;;10.02;;
24223;SDS011;12359;49.716;9.212;2022-08-20T01:38:48;11.15;;;10.15;;
24223;SDS011;12359;49.716;9.212;2022-08-20T01:43:45;10.05;;;9.07;;
24223;SDS011;12359;49.716;9.212;2022-08-20T01:46:12;15.23;;;11.60;;
24223;SDS011;12359;49.716;9.212;2022-08-20T01:48:38;13.00;;;10.15;;
24223;SDS011;12359;49.716;9.212;2022-08-20T01:51:10;13.90;;;9.93;;
24223;SDS011;12359;49.716;9.212;2022-08-20T01:53:39;11.05;;;9.85;;
24223;SDS011;12359;49.716;9.212;2022-08-20T01:56:08;10.30;;;9.25;;
24223;SDS011;12359;49.716;9.212;2022-08-20T01:58:38;11.05;;;9.95;;
24223;SDS011;12359;49.716;9.212;2022-08-20T02:01:06;11.23;;;10.02;;
24223;SDS011;12359;49.716;9.212;2022-08-20T02:03:32;11.38;;;9.95;;
24223;SDS011;12359;49.716;9.212;2022-08-20T02:05:58;10.10;;;9.10;;
24223;SDS011;12359;49.716;9.212;2022-08-20T02:08:25;9.70;;;8.45;;
24223;SDS011;12359;49.716;9.212;2022-08-20T02:10:51;11.40;;;9.38;;
24223;SDS011;12359;49.716;9.212;2022-08-20T02:13:17;10.70;;;9.68;;
24223;SDS011;12359;49.716;9.212;2022-08-20T02:15:43;13.35;;;10.95;;
24223;SDS011;12359;49.716;9.212;2022-08-20T02:18:10;11.52;;;10.32;;
24223;SDS011;12359;49.716;9.212;2022-08-20T02:20:39;13.75;;;10.82;;
24223;SDS011;12359;49.716;9.212;2022-08-20T02:23:06;11.45;;;9.90;;
24223;SDS011;12359;49.716;9.212;2022-08-20T02:25:32;13.40;;;10.77;;
24223;SDS011;12359;49.716;9.212;2022-08-20T02:28:01;11.45;;;10.23;;
24223;SDS011;12359;49.716;9.212;2022-08-20T02:30:32;10.93;;;9.80;;
24223;SDS011;12359;49.716;9.212;2022-08-20T02:33:00;10.75;;;9.73;;
24223;SDS011;12359;49.716;9.212;2022-08-20T02:35:28;10.13;;;9.02;;
24223;SDS011;12359;49.716;9.212;2022-08-20T02:37:55;10.57;;;9.57;;
24223;SDS011;12359;49.716;9.212;2022-08-20T02:40:21;9.95;;;8.98;;
24223;SDS011;12359;49.716;9.212;2022-08-20T02:42:50;12.48;;;11.15;;
24223;SDS011;12359;49.716;9.212;2022-08-20T02:45:16;9.65;;;8.75;;
24223;SDS011;12359;49.716;9.212;2022-08-20T02:47:43;11.80;;;9.73;;
24223;SDS011;12359;49.716;9.212;2022-08-20T02:50:11;8.95;;;7.95;;
24223;SDS011;12359;49.716;9.212;2022-08-20T02:52:39;13.80;;;9.77;;
24223;SDS011;12359;49.716;9.212;2022-08-20T02:55:05;11.68;;;9.88;;
24223;SDS011;12359;49.716;9.212;2022-08-20T02:57:32;12.52;;;9.32;;
24223;SDS011;12359;49.716;9.212;2022-08-20T02:59:58;12.50;;;10.55;;
24223;SDS011;12359;49.716;9.212;2022-08-20T03:02:24;11.90;;;9.88;;
24223;SDS011;12359;49.716;9.212;2022-08-20T03:04:50;10.80;;;9.77;;
24223;SDS011;12359;49.716;9.212;2022-08-20T03:07:15;15.05;;;10.02;;
24223;SDS011;12359;49.716;9.212;2022-08-20T03:09:41;11.80;;;10.60;;
24223;SDS011;12359;49.716;9.212;2022-08-20T03:12:07;11.55;;;10.35;;
24223;SDS011;12359;49.716;9.212;2022-08-20T03:14:34;10.95;;;9.95;;
24223;SDS011;12359;49.716;9.212;2022-08-20T03:16:59;11.35;;;10.15;;
24223;SDS011;12359;49.716;9.212;2022-08-20T03:19:25;11.50;;;10.30;;
24223;SDS011;12359;49.716;9.212;2022-08-20T03:21:51;11.45;;;10.35;;
24223;SDS011;12359;49.716;9.212;2022-08-20T03:24:17;11.20;;;10.10;;
24223;SDS011;12359;49.716;9.212;2022-08-20T03:26:43;12.27;;;10.98;;
24223;SDS011;12359;49.716;9.212;2022-08-20T03:29:09;11.40;;;9.95;;
24223;SDS011;12359;49.716;9.212;2022-08-20T03:31:35;11.10;;;10.07;;
24223;SDS011;12359;49.716;9.212;2022-08-20T03:34:01;11.13;;;9.98;;
24223;SDS011;12359;49.716;9.212;2022-08-20T03:36:28;9.93;;;8.93;;
24223;SDS011;12359;49.716;9.212;2022-08-20T03:38:54;11.95;;;10.20;;
24223;SDS011;12359;49.716;9.212;2022-08-20T03:41:24;11.57;;;10.40;;
24223;SDS011;12359;49.716;9.212;2022-08-20T03:43:50;13.13;;;10.45;;
24223;SDS011;12359;49.716;9.212;2022-08-20T03:46:16;12.77;;;10.52;;
24223;SDS011;12359;49.716;9.212;2022-08-20T03:48:42;10.38;;;9.43;;
24223;SDS011;12359;49.716;9.212;2022-08-20T03:51:08;11.55;;;10.35;;
24223;SDS011;12359;49.716;9.212;2022-08-20T03:53:34;11.48;;;10.27;;
24223;SDS011;12359;49.716;9.212;2022-08-20T03:56:00;11.25;;;9.02;;
24223;SDS011;12359;49.716;9.212;2022-08-20T03:58:29;9.27;;;8.48;;
24223;SDS011;12359;49.716;9.212;2022-08-20T04:00:56;12.95;;;9.00;;
24223;SDS011;12359;49.716;9.212;2022-08-20T04:03:22;11.50;;;9.45;;
24223;SDS011;12359;49.716;9.212;2022-08-20T04:05:48;10.75;;;9.65;;
24223;SDS011;12359;49.716;9.212;2022-08-20T04:08:18;10.98;;;9.38;;
24223;SDS011;12359;49.716;9.212;2022-08-20T04:10:47;10.32;;;9.20;;
24223;SDS011;12359;49.716;9.212;2022-08-20T04:13:14;11.15;;;10.05;;
24223;SDS011;12359;49.716;9.212;2022-08-20T04:15:41;11.65;;;10.32;;
24223;SDS011;12359;49.716;9.212;2022-08-20T04:18:09;13.55;;;9.20;;
24223;SDS011;12359;49.716;9.212;2022-08-20T04:20:37;11.15;;;9.80;;
24223;SDS011;12359;49.716;9.212;2022-08-20T04:23:05;14.32;;;9.48;;
24223;SDS011;12359;49.716;9.212;2022-08-20T04:25:32;10.07;;;9.18;;
24223;SDS011;12359;49.716;9.212;2022-08-20T04:27:59;11.18;;;9.85;;
24223;SDS011;12359;49.716;9.212;2022-08-20T04:30:26;10.75;;;9.45;;
24223;SDS011;12359;49.716;9.212;2022-08-20T04:32:53;10.57;;;9.57;;
24223;SDS011;12359;49.716;9.212;2022-08-20T04:35:20;10.90;;;9.25;;
24223;SDS011;12359;49.716;9.212;2022-08-20T04:37:48;12.32;;;10.65;;
24223;SDS011;12359;49.716;9.212;2022-08-20T04:40:21;13.23;;;10.63;;
24223;SDS011;12359;49.716;9.212;2022-08-20T04:43:05;13.40;;;10.43;;
24223;SDS011;12359;49.716;9.212;2022-08-20T04:45:32;12.07;;;10.80;;
24223;SDS011;12359;49.716;9.212;2022-08-20T04:48:00;15.43;;;10.70;;
24223;SDS011;12359;49.716;9.212;2022-08-20T04:50:32;14.18;;;9.30;;
24223;SDS011;12359;49.716;9.212;2022-08-20T04:53:00;11.07;;;9.80;;
24223;SDS011;12359;49.716;9.212;2022-08-20T04:55:30;9.88;;;8.75;;
24223;SDS011;12359;49.716;9.212;2022-08-20T04:58:05;11.80;;;10.55;;
24223;SDS011;12359;49.716;9.212;2022-08-20T05:00:34;12.00;;;10.73;;
24223;SDS011;12359;49.716;9.212;2022-08-20T05:03:00;15.27;;;10.48;;
24223;SDS011;12359;49.716;9.212;2022-08-20T05:05:26;11.40;;;9.23;;
24223;SDS011;12359;49.716;9.212;2022-08-20T05:07:52;11.95;;;10.75;;
24223;SDS011;12359;49.716;9.212;2022-08-20T05:10:19;11.02;;;9.95;;
24223;SDS011;12359;49.716;9.212;2022-08-20T05:12:45;10.45;;;8.65;;
24223;SDS011;12359;49.716;9.212;2022-08-20T05:15:11;12.13;;;9.68;;
24223;SDS011;12359;49.716;9.212;2022-08-20T05:17:40;10.98;;;9.88;;
24223;SDS011;12359;49.716;9.212;2022-08-20T05:20:09;13.15;;;10.20;;
24223;SDS011;12359;49.716;9.212;2022-08-20T05:22:37;12.07;;;10.60;;
24223;SDS011;12359;49.716;9.212;2022-08-20T05:25:02;10.55;;;9.52;;
24223;SDS011;12359;49.716;9.212;2022-08-20T05:27:29;12.82;;;10.23;;
24223;SDS011;12359;49.716;9.212;2022-08-20T05:29:59;10.80;;;9.75;;
24223;SDS011;12359;49.716;9.212;2022-08-20T05:32:31;11.35;;;10.15;;
24223;SDS011;12359;49.716;9.212;2022-08-20T05:34:57;12.30;;;9.48;;
24223;SDS011;12359;49.716;9.212;2022-08-20T05:37:24;10.27;;;9.23;;
24223;SDS011;12359;49.716;9.212;2022-08-20T05:39:50;11.15;;;9.85;;
24223;SDS011;12359;49.716;9.212;2022-08-20T05:42:16;10.63;;;9.52;;
24223;SDS011;12359;49.716;9.212;2022-08-20T05:44:42;9.68;;;8.77;;
24223;SDS011;12359;49.716;9.212;2022-08-20T05:47:08;10.82;;;9.70;;
24223;SDS011;12359;49.716;9.212;2022-08-20T05:49:34;12.60;;;10.35;;
24223;SDS011;12359;49.716;9.212;2022-08-20T05:52:01;10.68;;;8.65;;
24223;SDS011;12359;49.716;9.212;2022-08-20T05:54:27;12.48;;;10.55;;
24223;SDS011;12359;49.716;9.212;2022-08-20T05:56:53;11.07;;;10.05;;
24223;SDS011;12359;49.716;9.212;2022-08-20T05:59:19;13.07;;;9.15;;
24223;SDS011;12359;49.716;9.212;2022-08-20T06:01:46;10.65;;;9.55;;
24223;SDS011;12359;49.716;9.212;2022-08-20T06:04:12;11.10;;;9.80;;
24223;SDS011;12359;49.716;9.212;2022-08-20T06:06:52;11.32;;;9.20;;
24223;SDS011;12359;49.716;9.212;2022-08-20T06:09:21;10.50;;;8.45;;
24223;SDS011;12359;49.716;9.212;2022-08-20T06:11:49;10.25;;;9.25;;
24223;SDS011;12359;49.716;9.212;2022-08-20T06:14:15;11.80;;;9.50;;
24223;SDS011;12359;49.716;9.212;2022-08-20T06:16:42;11.73;;;9.15;;
24223;SDS011;12359;49.716;9.212;2022-08-20T06:19:08;10.68;;;9.30;;
24223;SDS011;12359;49.716;9.212;2022-08-20T06:21:34;10.95;;;9.43;;
24223;SDS011;12359;49.716;9.212;2022-08-20T06:24:00;10.98;;;9.88;;
24223;SDS011;12359;49.716;9.212;2022-08-20T06:26:25;12.77;;;10.85;;
24223;SDS011;12359;49.716;9.212;2022-08-20T06:28:51;10.52;;;9.55;;
24223;SDS011;12359;49.716;9.212;2022-08-20T06:31:18;9.73;;;8.77;;
24223;SDS011;12359;49.716;9.212;2022-08-20T06:33:43;10.32;;;8.80;;
24223;SDS011;12359;49.716;9.212;2022-08-20T06:36:09;10.45;;;9.45;;
24223;SDS011;12359;49.716;9.212;2022-08-20T06:38:35;16.33;;;10.00;;
24223;SDS011;12359;49.716;9.212;2022-08-20T06:41:00;10.18;;;8.63;;
24223;SDS011;12359;49.716;9.212;2022-08-20T06:43:26;11.30;;;10.30;;
24223;SDS011;12359;49.716;9.212;2022-08-20T06:45:52;13.68;;;9.32;;
24223;SDS011;12359;49.716;9.212;2022-08-20T06:48:22;12.40;;;11.02;;
24223;SDS011;12359;49.716;9.212;2022-08-20T06:50:48;14.45;;;9.75;;
24223;SDS011;12359;49.716;9.212;2022-08-20T06:53:15;11.70;;;10.38;;
24223;SDS011;12359;49.716;9.212;2022-08-20T06:55:45;13.80;;;10.32;;
24223;SDS011;12359;49.716;9.212;2022-08-20T06:58:14;11.18;;;9.82;;
24223;SDS011;12359;49.716;9.212;2022-08-20T07:00:41;10.98;;;9.93;;
24223;SDS011;12359;49.716;9.212;2022-08-20T07:03:08;12.93;;;9.82;;
24223;SDS011;12359;49.716;9.212;2022-08-20T07:05:35;10.82;;;9.40;;
24223;SDS011;12359;49.716;9.212;2022-08-20T07:08:03;11.98;;;9.93;;
24223;SDS011;12359;49.716;9.212;2022-08-20T07:10:29;14.93;;;10.63;;
24223;SDS011;12359;49.716;9.212;2022-08-20T07:12:56;11.73;;;10.63;;
24223;SDS011;12359;49.716;9.212;2022-08-20T07:15:23;12.18;;;10.90;;
24223;SDS011;12359;49.716;9.212;2022-08-20T07:17:52;10.60;;;9.60;;
24223;SDS011;12359;49.716;9.212;2022-08-20T07:20:19;11.52;;;10.38;;
24223;SDS011;12359;49.716;9.212;2022-08-20T07:22:46;10.82;;;9.73;;
24223;SDS011;12359;49.716;9.212;2022-08-20T07:25:13;13.45;;;9.73;;
24223;SDS011;12359;49.716;9.212;2022-08-20T07:27:41;11.63;;;9.48;;
24223;SDS011;12359;49.716;9.212;2022-08-20T07:30:08;11.27;;;10.18;;
24223;SDS011;12359;49.716;9.212;2022-08-20T07:32:56;10.85;;;9.73;;
24223;SDS011;12359;49.716;9.212;2022-08-20T07:35:22;12.05;;;10.18;;
24223;SDS011;12359;49.716;9.212;2022-08-20T07:37:48;12.93;;;9.90;;
24223;SDS011;12359;49.716;9.212;2022-08-20T07:40:17;12.80;;;9.73;;
24223;SDS011;12359;49.716;9.212;2022-08-20T07:42:45;13.02;;;9.60;;
24223;SDS011;12359;49.716;9.212;2022-08-20T07:45:12;9.85;;;8.70;;
24223;SDS011;12359;49.716;9.212;2022-08-20T07:47:39;11.95;;;9.93;;
24223;SDS011;12359;49.716;9.212;2022-08-20T07:50:07;12.40;;;10.32;;
24223;SDS011;12359;49.716;9.212;2022-08-20T07:52:35;14.40;;;10.32;;
24223;SDS011;12359;49.716;9.212;2022-08-20T07:55:05;16.15;;;10.80;;
24223;SDS011;12359;49.716;9.212;2022-08-20T07:57:33;12.23;;;10.93;;
24223;SDS011;12359;49.716;9.212;2022-08-20T07:59:59;11.65;;;9.77;;
24223;SDS011;12359;49.716;9.212;2022-08-20T08:02:25;10.75;;;8.57;;
24223;SDS011;12359;49.716;9.212;2022-08-20T08:04:51;12.10;;;10.25;;
24223;SDS011;12359;49.716;9.212;2022-08-20T08:07:18;11.25;;;9.52;;
24223;SDS011;12359;49.716;9.212;2022-08-20T08:09:44;11.23;;;9.95;;
24223;SDS011;12359;49.716;9.212;2022-08-20T08:12:11;13.05;;;9.95;;
24223;SDS011;12359;49.716;9.212;2022-08-20T08:14:37;10.75;;;9.02;;
24223;SDS011;12359;49.716;9.212;2022-08-20T08:17:05;9.90;;;8.25;;
24223;SDS011;12359;49.716;9.212;2022-08-20T08:19:38;11.43;;;9.40;;
24223;SDS011;12359;49.716;9.212;2022-08-20T08:22:07;11.45;;;8.68;;
24223;SDS011;12359;49.716;9.212;2022-08-20T08:24:36;10.40;;;9.27;;
24223;SDS011;12359;49.716;9.212;2022-08-20T08:27:03;10.52;;;8.95;;
24223;SDS011;12359;49.716;9.212;2022-08-20T08:29:29;9.50;;;8.60;;
24223;SDS011;12359;49.716;9.212;2022-08-20T08:31:55;11.80;;;10.15;;
24223;SDS011;12359;49.716;9.212;2022-08-20T08:34:21;9.25;;;8.38;;
24223;SDS011;12359;49.716;9.212;2022-08-20T08:36:50;10.02;;;9.02;;
24223;SDS011;12359;49.716;9.212;2022-08-20T08:39:17;9.70;;;8.73;;
24223;SDS011;12359;49.716;9.212;2022-08-20T08:41:47;12.85;;;8.93;;
24223;SDS011;12359;49.716;9.212;2022-08-20T08:44:19;13.43;;;9.02;;
24223;SDS011;12359;49.716;9.212;2022-08-20T08:46:48;10.85;;;7.97;;
24223;SDS011;12359;49.716;9.212;2022-08-20T08:49:26;9.63;;;8.68;;
24223;SDS011;12359;49.716;9.212;2022-08-20T08:51:58;8.40;;;7.65;;
24223;SDS011;12359;49.716;9.212;2022-08-20T08:54:26;9.50;;;8.07;;
24223;SDS011;12359;49.716;9.212;2022-08-20T08:56:55;8.13;;;7.28;;
24223;SDS011;12359;49.716;9.212;2022-08-20T08:59:26;9.23;;;7.85;;
24223;SDS011;12359;49.716;9.212;2022-08-20T09:01:55;8.68;;;7.57;;
24223;SDS011;12359;49.716;9.212;2022-08-20T09:04:32;11.55;;;7.97;;
24223;SDS011;12359;49.716;9.212;2022-08-20T09:07:02;8.95;;;7.63;;
24223;SDS011;12359;49.716;9.212;2022-08-20T09:09:32;7.82;;;7.13;;
24223;SDS011;12359;49.716;9.212;2022-08-20T09:12:03;7.40;;;6.32;;
24223;SDS011;12359;49.716;9.212;2022-08-20T09:14:32;11.27;;;7.28;;
24223;SDS011;12359;49.716;9.212;2022-08-20T09:16:58;8.82;;;6.68;;
24223;SDS011;12359;49.716;9.212;2022-08-20T09:19:24;8.57;;;7.32;;
24223;SDS011;12359;49.716;9.212;2022-08-20T09:21:50;7.47;;;6.13;;
24223;SDS011;12359;49.716;9.212;2022-08-20T09:24:15;8.88;;;7.35;;
24223;SDS011;12359;49.716;9.212;2022-08-20T09:26:41;8.38;;;7.22;;
24223;SDS011;12359;49.716;9.212;2022-08-20T09:29:07;9.32;;;6.90;;
24223;SDS011;12359;49.716;9.212;2022-08-20T09:31:33;5.43;;;4.88;;
24223;SDS011;12359;49.716;9.212;2022-08-20T09:34:00;6.10;;;5.50;;
24223;SDS011;12359;49.716;9.212;2022-08-20T09:36:25;9.25;;;5.63;;
24223;SDS011;12359;49.716;9.212;2022-08-20T09:38:51;7.53;;;5.88;;
24223;SDS011;12359;49.716;9.212;2022-08-20T09:41:18;6.18;;;5.63;;
24223;SDS011;12359;49.716;9.212;2022-08-20T09:43:44;6.03;;;5.43;;
24223;SDS011;12359;49.716;9.212;2022-08-20T09:46:10;7.05;;;6.22;;
24223;SDS011;12359;49.716;9.212;2022-08-20T09:48:35;9.00;;;6.72;;
24223;SDS011;12359;49.716;9.212;2022-08-20T09:51:01;10.43;;;6.82;;
24223;SDS011;12359;49.716;9.212;2022-08-20T09:53:27;6.55;;;5.80;;
24223;SDS011;12359;49.716;9.212;2022-08-20T09:55:54;5.32;;;4.43;;
24223;SDS011;12359;49.716;9.212;2022-08-20T09:58:24;9.20;;;5.97;;
24223;SDS011;12359;49.716;9.212;2022-08-20T10:01:11;9.30;;;5.65;;
24223;SDS011;12359;49.716;9.212;2022-08-20T10:03:39;9.48;;;5.47;;
24223;SDS011;12359;49.716;9.212;2022-08-20T10:06:05;6.45;;;5.00;;
24223;SDS011;12359;49.716;9.212;2022-08-20T10:08:31;6.57;;;4.95;;
24223;SDS011;12359;49.716;9.212;2022-08-20T10:10:57;7.80;;;4.28;;
24223;SDS011;12359;49.716;9.212;2022-08-20T10:13:23;4.85;;;4.35;;
24223;SDS011;12359;49.716;9.212;2022-08-20T10:15:48;5.00;;;4.55;;
24223;SDS011;12359;49.716;9.212;2022-08-20T10:18:14;4.25;;;3.85;;
24223;SDS011;12359;49.716;9.212;2022-08-20T10:20:40;3.75;;;3.45;;
24223;SDS011;12359;49.716;9.212;2022-08-20T10:23:06;3.63;;;2.83;;
24223;SDS011;12359;49.716;9.212;2022-08-20T10:25:32;2.92;;;2.72;;
24223;SDS011;12359;49.716;9.212;2022-08-20T10:27:58;4.20;;;3.45;;
24223;SDS011;12359;49.716;9.212;2022-08-20T10:30:24;4.18;;;3.25;;
24223;SDS011;12359;49.716;9.212;2022-08-20T10:32:50;3.30;;;3.00;;
24223;SDS011;12359;49.716;9.212;2022-08-20T10:35:15;8.75;;;3.40;;
24223;SDS011;12359;49.716;9.212;2022-08-20T10:37:42;3.45;;;2.53;;
24223;SDS011;12359;49.716;9.212;2022-08-20T10:40:09;4.03;;;3.65;;
24223;SDS011;12359;49.716;9.212;2022-08-20T10:42:35;4.22;;;3.63;;
24223;SDS011;12359;49.716;9.212;2022-08-20T10:45:01;3.55;;;3.25;;
24223;SDS011;12359;49.716;9.212;2022-08-20T10:47:28;3.85;;;2.97;;
24223;SDS011;12359;49.716;9.212;2022-08-20T10:49:56;2.55;;;2.35;;
24223;SDS011;12359;49.716;9.212;2022-08-20T10:52:23;3.58;;;3.10;;
24223;SDS011;12359;49.716;9.212;2022-08-20T10:54:49;3.50;;;3.20;;
24223;SDS011;12359;49.716;9.212;2022-08-20T10:57:19;3.65;;;3.35;;
24223;SDS011;12359;49.716;9.212;2022-08-20T10:59:48;4.55;;;3.55;;
24223;SDS011;12359;49.716;9.212;2022-08-20T11:02:15;3.95;;;3.55;;
24223;SDS011;12359;49.716;9.212;2022-08-20T11:04:41;4.90;;;3.47;;
24223;SDS011;12359;49.716;9.212;2022-08-20T11:09:47;3.92;;;3.50;;
24223;SDS011;12359;49.716;9.212;2022-08-20T11:12:14;4.43;;;4.03;;
24223;SDS011;12359;49.716;9.212;2022-08-20T11:14:41;4.05;;;3.65;;
24223;SDS011;12359;49.716;9.212;2022-08-20T11:17:07;4.22;;;3.60;;
24223;SDS011;12359;49.716;9.212;2022-08-20T11:19:37;6.05;;;4.10;;
24223;SDS011;12359;49.716;9.212;2022-08-20T11:22:07;3.35;;;3.05;;
24223;SDS011;12359;49.716;9.212;2022-08-20T11:24:32;4.45;;;3.15;;
24223;SDS011;12359;49.716;9.212;2022-08-20T11:26:58;4.10;;;3.40;;
24223;SDS011;12359;49.716;9.212;2022-08-20T11:29:24;13.10;;;3.42;;
24223;SDS011;12359;49.716;9.212;2022-08-20T11:31:50;4.22;;;3.42;;
24223;SDS011;12359;49.716;9.212;2022-08-20T11:34:16;3.80;;;3.50;;
24223;SDS011;12359;49.716;9.212;2022-08-20T11:36:42;3.75;;;3.40;;
24223;SDS011;12359;49.716;9.212;2022-08-20T11:39:09;4.80;;;3.78;;
24223;SDS011;12359;49.716;9.212;2022-08-20T11:41:34;4.72;;;3.92;;
24223;SDS011;12359;49.716;9.212;2022-08-20T11:44:00;6.25;;;3.65;;
24223;SDS011;12359;49.716;9.212;2022-08-20T11:46:26;4.13;;;3.83;;
24223;SDS011;12359;49.716;9.212;2022-08-20T11:48:51;21.40;;;4.00;;
24223;SDS011;12359;49.716;9.212;2022-08-20T11:51:17;5.05;;;2.97;;
24223;SDS011;12359;49.716;9.212;2022-08-20T11:53:42;3.97;;;2.35;;
24223;SDS011;12359;49.716;9.212;2022-08-20T11:56:08;3.35;;;2.63;;
24223;SDS011;12359;49.716;9.212;2022-08-20T11:58:35;2.83;;;2.63;;
24223;SDS011;12359;49.716;9.212;2022-08-20T12:01:01;4.78;;;2.88;;
24223;SDS011;12359;49.716;9.212;2022-08-20T12:03:26;5.05;;;2.88;;
24223;SDS011;12359;49.716;9.212;2022-08-20T12:05:52;4.25;;;2.25;;
24223;SDS011;12359;49.716;9.212;2022-08-20T12:08:21;2.08;;;1.88;;
24223;SDS011;12359;49.716;9.212;2022-08-20T12:10:46;4.03;;;2.08;;
24223;SDS011;12359;49.716;9.212;2022-08-20T12:13:12;2.38;;;1.88;;
24223;SDS011;12359;49.716;9.212;2022-08-20T12:15:38;1.88;;;1.33;;
24223;SDS011;12359;49.716;9.212;2022-08-20T12:18:06;2.13;;;1.92;;
24223;SDS011;12359;49.716;9.212;2022-08-20T12:20:32;3.05;;;1.92;;
24223;SDS011;12359;49.716;9.212;2022-08-20T12:22:58;1.63;;;1.50;;
24223;SDS011;12359;49.716;9.212;2022-08-20T12:25:24;1.92;;;1.83;;
24223;SDS011;12359;49.716;9.212;2022-08-20T12:27:50;2.42;;;1.90;;
24223;SDS011;12359;49.716;9.212;2022-08-20T12:30:17;3.10;;;2.15;;
24223;SDS011;12359;49.716;9.212;2022-08-20T12:32:44;2.15;;;2.05;;
24223;SDS011;12359;49.716;9.212;2022-08-20T12:35:12;1.80;;;1.70;;
24223;SDS011;12359;49.716;9.212;2022-08-20T12:37:39;3.95;;;2.15;;
24223;SDS011;12359;49.716;9.212;2022-08-20T12:40:07;3.65;;;2.80;;
24223;SDS011;12359;49.716;9.212;2022-08-20T12:42:36;1.63;;;1.52;;
24223;SDS011;12359;49.716;9.212;2022-08-20T12:45:02;2.45;;;1.33;;
24223;SDS011;12359;49.716;9.212;2022-08-20T12:47:29;3.20;;;1.83;;
24223;SDS011;12359;49.716;9.212;2022-08-20T12:49:59;2.92;;;2.00;;
24223;SDS011;12359;49.716;9.212;2022-08-20T12:52:28;2.03;;;1.92;;
24223;SDS011;12359;49.716;9.212;2022-08-20T12:54:55;3.10;;;2.22;;
24223;SDS011;12359;49.716;9.212;2022-08-20T12:57:32;2.67;;;1.80;;
24223;SDS011;12359;49.716;9.212;2022-08-20T12:59:59;2.33;;;1.85;;
24223;SDS011;12359;49.716;9.212;2022-08-20T13:02:29;2.92;;;1.75;;
24223;SDS011;12359;49.716;9.212;2022-08-20T13:04:54;1.67;;;1.55;;
24223;SDS011;12359;49.716;9.212;2022-08-20T13:07:20;2.13;;;1.92;;
24223;SDS011;12359;49.716;9.212;2022-08-20T13:09:46;3.28;;;2.03;;
24223;SDS011;12359;49.716;9.212;2022-08-20T13:12:11;1.85;;;1.75;;
24223;SDS011;12359;49.716;9.212;2022-08-20T13:14:38;1.63;;;1.52;;
24223;SDS011;12359;49.716;9.212;2022-08-20T13:17:04;0.70;;;0.70;;
24223;SDS011;12359;49.716;9.212;2022-08-20T13:19:31;1.05;;;0.98;;
24223;SDS011;12359;49.716;9.212;2022-08-20T13:21:58;1.10;;;1.10;;
24223;SDS011;12359;49.716;9.212;2022-08-20T13:24:24;1.48;;;0.60;;
24223;SDS011;12359;49.716;9.212;2022-08-20T13:26:50;1.88;;;0.70;;
24223;SDS011;12359;49.716;9.212;2022-08-20T13:29:16;0.80;;;0.80;;
24223;SDS011;12359;49.716;9.212;2022-08-20T13:31:43;1.85;;;0.95;;
24223;SDS011;12359;49.716;9.212;2022-08-20T13:34:08;1.13;;;0.95;;
24223;SDS011;12359;49.716;9.212;2022-08-20T13:36:34;0.90;;;0.77;;
24223;SDS011;12359;49.716;9.212;2022-08-20T13:39:05;3.42;;;0.80;;
24223;SDS011;12359;49.716;9.212;2022-08-20T13:41:31;0.82;;;0.82;;
24223;SDS011;12359;49.716;9.212;2022-08-20T13:43:58;0.65;;;0.65;;
24223;SDS011;12359;49.716;9.212;2022-08-20T13:46:23;0.90;;;0.90;;
24223;SDS011;12359;49.716;9.212;2022-08-20T13:48:49;0.90;;;0.90;;
24223;SDS011;12359;49.716;9.212;2022-08-20T13:51:15;0.80;;;0.80;;
24223;SDS011;12359;49.716;9.212;2022-08-20T13:53:40;1.75;;;0.75;;
24223;SDS011;12359;49.716;9.212;2022-08-20T13:56:06;1.55;;;0.60;;
24223;SDS011;12359;49.716;9.212;2022-08-20T13:58:32;1.45;;;0.50;;
24223;SDS011;12359;49.716;9.212;2022-08-20T14:00:58;1.90;;;0.90;;
24223;SDS011;12359;49.716;9.212;2022-08-20T14:03:23;0.77;;;0.77;;
24223;SDS011;12359;49.716;9.212;2022-08-20T14:05:49;0.55;;;0.55;;
24223;SDS011;12359;49.716;9.212;2022-08-20T14:08:17;1.33;;;1.00;;
24223;SDS011;12359;49.716;9.212;2022-08-20T14:10:47;0.68;;;0.60;;
24223;SDS011;12359;49.716;9.212;2022-08-20T14:13:15;0.30;;;0.30;;
24223;SDS011;12359;49.716;9.212;2022-08-20T14:15:42;3.97;;;0.60;;
24223;SDS011;12359;49.716;9.212;2022-08-20T14:18:08;1.60;;;0.75;;
24223;SDS011;12359;49.716;9.212;2022-08-20T14:20:34;1.88;;;0.40;;
24223;SDS011;12359;49.716;9.212;2022-08-20T14:23:00;2.35;;;0.70;;
24223;SDS011;12359;49.716;9.212;2022-08-20T14:25:26;0.60;;;0.60;;
24223;SDS011;12359;49.716;9.212;2022-08-20T14:27:53;0.40;;;0.40;;
24223;SDS011;12359;49.716;9.212;2022-08-20T14:30:25;0.50;;;0.50;;
24223;SDS011;12359;49.716;9.212;2022-08-20T14:32:53;1.13;;;1.00;;
24223;SDS011;12359;49.716;9.212;2022-08-20T14:35:20;2.08;;;0.50;;
24223;SDS011;12359;49.716;9.212;2022-08-20T14:37:48;3.05;;;0.40;;
24223;SDS011;12359;49.716;9.212;2022-08-20T14:40:16;3.20;;;0.70;;
24223;SDS011;12359;49.716;9.212;2022-08-20T14:42:43;1.10;;;0.52;;
24223;SDS011;12359;49.716;9.212;2022-08-20T14:45:10;2.25;;;0.55;;
24223;SDS011;12359;49.716;9.212;2022-08-20T14:47:38;1.27;;;0.30;;